createdAt,value
2019-04-04T00:00:29.797Z,83.96
2019-04-04T00:03:03.505Z,83.78
2019-04-04T00:05:37.248Z,84.02
2019-04-04T00:08:10.970Z,84.02
2019-04-04T00:10:44.780Z,84.08
2019-04-04T00:13:18.488Z,84.23
2019-04-04T00:15:52.501Z,84.23
2019-04-04T00:18:27.367Z,84.66
2019-04-04T00:21:02.745Z,84.66
2019-04-04T00:23:37.949Z,84.42
2019-04-04T00:26:12.260Z,84.48
2019-04-04T00:28:46.610Z,84.58
2019-04-04T00:31:20.392Z,84.58
2019-04-04T00:33:55.961Z,84.44
2019-04-04T00:36:30.065Z,84.62
2019-04-04T00:39:05.678Z,84.50
2019-04-04T00:41:39.424Z,84.50
2019-04-04T00:44:13.344Z,84.64
2019-04-04T00:46:47.072Z,85.28
2019-04-04T00:49:20.779Z,85.26
2019-04-04T00:51:54.523Z,85.26
2019-04-04T00:54:28.535Z,85.26
2019-04-04T00:57:02.598Z,85.48
2019-04-04T00:59:36.302Z,86.27
2019-04-04T01:02:10.037Z,86.27
2019-04-04T01:04:43.987Z,85.52
2019-04-04T01:07:17.743Z,85.52
2019-04-04T01:09:51.442Z,85.39
2019-04-04T01:12:25.192Z,85.58
2019-04-04T01:15:00.167Z,85.76
2019-04-04T01:17:35.071Z,86.27
2019-04-04T01:20:10.038Z,86.24
2019-04-04T01:22:45.505Z,86.17
2019-04-04T01:25:19.296Z,86.33
2019-04-04T01:27:53.088Z,86.33
2019-04-04T01:30:26.930Z,86.19
2019-04-04T01:33:03.582Z,86.31
2019-04-04T01:35:36.887Z,86.31
2019-04-04T01:38:11.027Z,86.34
2019-04-04T01:40:44.923Z,86.48
2019-04-04T01:43:18.781Z,86.69
2019-04-04T01:45:52.998Z,86.75
2019-04-04T01:48:26.969Z,87.05
2019-04-04T01:51:00.729Z,87.20
2019-04-04T01:53:34.471Z,87.20
2019-04-04T01:56:08.249Z,87.34
2019-04-04T01:58:42.347Z,87.55
2019-04-04T02:01:16.620Z,87.71
2019-04-04T02:03:51.815Z,87.69
2019-04-04T02:06:28.368Z,87.99
2019-04-04T02:09:02.836Z,87.92
2019-04-04T02:11:37.974Z,88.08
2019-04-04T02:14:12.492Z,88.30
2019-04-04T02:16:50.951Z,88.25
2019-04-04T02:19:24.533Z,88.16
2019-04-04T02:21:59.873Z,88.03
2019-04-04T02:24:34.001Z,88.05
2019-04-04T02:27:08.058Z,88.18
2019-04-04T02:29:42.484Z,88.16
2019-04-04T02:32:17.920Z,88.29
2019-04-04T02:34:51.867Z,88.11
2019-04-04T02:37:25.719Z,88.14
2019-04-04T02:40:02.890Z,88.29
2019-04-04T02:42:36.731Z,88.55
2019-04-04T02:45:10.878Z,88.49
2019-04-04T02:47:50.315Z,88.55
2019-04-04T02:50:22.167Z,88.79
2019-04-04T02:52:56.033Z,88.83
2019-04-04T02:55:30.957Z,89.04
2019-04-04T02:58:05.097Z,88.81
2019-04-04T03:00:39.076Z,88.71
2019-04-04T03:03:13.005Z,88.61
2019-04-04T03:05:50.813Z,88.59
2019-04-04T03:08:22.361Z,88.55
2019-04-04T03:10:56.315Z,88.89
2019-04-04T03:13:32.235Z,88.77
2019-04-04T03:16:06.042Z,88.66
2019-04-04T03:18:39.870Z,88.99
2019-04-04T03:21:13.720Z,89.29
2019-04-04T03:23:47.455Z,89.37
2019-04-04T03:26:21.344Z,89.88
2019-04-04T03:28:55.172Z,89.85
2019-04-04T03:31:36.451Z,90.31
2019-04-04T03:34:11.004Z,91.11
2019-04-04T03:36:40.221Z,90.77
2019-04-04T03:39:19.130Z,90.53
2019-04-04T03:41:49.794Z,91.20
2019-04-04T03:44:23.847Z,91.06
2019-04-04T03:46:58.258Z,91.26
2019-04-04T03:49:32.585Z,91.26
2019-04-04T03:52:10.138Z,90.92
2019-04-04T03:54:41.940Z,90.64
2019-04-04T03:57:15.826Z,90.57
2019-04-04T03:59:49.588Z,90.48
2019-04-04T04:02:23.586Z,90.62
2019-04-04T04:05:00.312Z,90.50
2019-04-04T04:07:33.103Z,90.57
2019-04-04T04:10:07.041Z,90.86
2019-04-04T04:12:43.061Z,90.73
2019-04-04T04:15:16.810Z,90.74
2019-04-04T04:17:50.925Z,90.75
2019-04-04T04:20:24.756Z,90.75
2019-04-04T04:22:58.926Z,90.76
2019-04-04T04:25:35.101Z,91.04
2019-04-04T04:28:08.343Z,91.16
2019-04-04T04:30:42.223Z,91.04
2019-04-04T04:33:16.067Z,90.92
2019-04-04T04:35:50.330Z,90.87
2019-04-04T04:38:26.859Z,90.77
2019-04-04T04:41:00.622Z,90.73
2019-04-04T04:43:34.516Z,90.83
2019-04-04T04:46:08.266Z,91.03
2019-04-04T04:48:42.032Z,91.51
2019-04-04T04:51:16.018Z,91.53
2019-04-04T04:53:50.472Z,91.64
2019-04-04T04:56:25.062Z,91.81
2019-04-04T04:58:59.241Z,91.90
2019-04-04T05:01:33.016Z,91.86
2019-04-04T05:04:06.960Z,91.74
2019-04-04T05:06:40.850Z,91.57
2019-04-04T05:09:14.760Z,91.63
2019-04-04T05:11:50.240Z,91.89
2019-04-04T05:14:24.532Z,92.16
2019-04-04T05:16:58.746Z,91.91
2019-04-04T05:19:32.696Z,91.61
2019-04-04T05:22:07.109Z,91.48
2019-04-04T05:24:43.169Z,91.43
2019-04-04T05:27:17.059Z,91.68
2019-04-04T05:29:51.120Z,91.45
2019-04-04T05:32:25.140Z,91.51
2019-04-04T05:35:00.990Z,91.56
2019-04-04T05:37:37.862Z,91.77
2019-04-04T05:40:11.102Z,91.47
2019-04-04T05:42:45.150Z,91.39
2019-04-04T05:45:19.045Z,91.21
2019-04-04T05:47:55.074Z,91.17
2019-04-04T05:50:28.395Z,91.17
2019-04-04T05:53:04.340Z,90.94
2019-04-04T05:55:37.972Z,90.70
2019-04-04T05:58:11.818Z,90.67
2019-04-04T06:00:47.586Z,90.00
2019-04-04T06:03:21.312Z,89.89
2019-04-04T06:05:55.167Z,89.88
2019-04-04T06:08:29.260Z,89.47
2019-04-04T06:11:03.356Z,89.33
2019-04-04T06:13:37.460Z,89.37
2019-04-04T06:16:11.247Z,89.11
2019-04-04T06:18:44.993Z,89.11
2019-04-04T06:21:19.252Z,88.60
2019-04-04T06:23:53.894Z,88.24
2019-04-04T06:26:28.623Z,88.31
2019-04-04T06:29:05.422Z,87.63
2019-04-04T06:31:38.127Z,87.33
2019-04-04T06:34:12.052Z,87.33
2019-04-04T06:36:47.005Z,87.02
2019-04-04T06:39:23.008Z,87.02
2019-04-04T06:41:57.403Z,86.25
2019-04-04T06:44:31.253Z,86.39
2019-04-04T06:47:05.277Z,86.05
2019-04-04T06:49:39.054Z,85.86
2019-04-04T06:52:12.957Z,86.12
2019-04-04T06:54:47.003Z,85.65
2019-04-04T06:57:20.857Z,85.31
2019-04-04T06:59:54.741Z,85.31
2019-04-04T07:02:28.555Z,85.26
2019-04-04T07:05:04.130Z,84.89
2019-04-04T07:07:37.973Z,83.93
2019-04-04T07:10:12.251Z,83.93
2019-04-04T07:12:48.850Z,83.21
2019-04-04T07:15:21.560Z,83.10
2019-04-04T07:17:55.403Z,82.03
2019-04-04T07:20:29.504Z,80.70
2019-04-04T07:23:03.411Z,80.22
2019-04-04T07:25:38.103Z,80.03
2019-04-04T07:28:13.165Z,80.27
2019-04-04T07:30:47.006Z,80.15
2019-04-04T07:33:21.486Z,80.52
2019-04-04T07:35:55.406Z,80.97
2019-04-04T07:38:29.425Z,81.92
2019-04-04T07:41:03.504Z,82.11
2019-04-04T07:43:39.379Z,82.08
2019-04-04T07:46:16.570Z,83.85
2019-04-04T07:48:51.301Z,83.85
2019-04-04T07:51:24.229Z,83.69
2019-04-04T07:53:58.027Z,83.68
2019-04-04T07:56:31.988Z,84.03
2019-04-04T07:59:05.802Z,83.68
2019-04-04T08:01:50.625Z,83.68
2019-04-04T08:04:15.823Z,83.33
2019-04-04T08:06:49.709Z,82.43
2019-04-04T08:09:26.099Z,82.43
2019-04-04T08:11:59.528Z,81.15
2019-04-04T08:14:34.007Z,80.45
2019-04-04T08:17:07.754Z,80.45
2019-04-04T08:19:41.807Z,80.03
2019-04-04T08:22:15.674Z,79.50
2019-04-04T08:24:49.604Z,79.01
2019-04-04T08:27:23.322Z,79.03
2019-04-04T08:29:57.164Z,78.23
2019-04-04T08:32:30.894Z,77.75
2019-04-04T08:35:05.710Z,76.86
2019-04-04T08:37:39.452Z,76.57
2019-04-04T08:40:13.492Z,76.15
2019-04-04T08:42:47.479Z,76.14
2019-04-04T08:45:21.305Z,76.03
2019-04-04T08:47:55.366Z,77.00
2019-04-04T08:50:29.278Z,77.35
2019-04-04T08:53:03.007Z,76.88
2019-04-04T08:55:37.148Z,77.43
2019-04-04T08:58:11.335Z,78.27
2019-04-04T09:00:45.311Z,77.48
2019-04-04T09:03:19.070Z,76.78
2019-04-04T09:05:52.964Z,75.82
2019-04-04T09:08:26.836Z,76.41
2019-04-04T09:11:00.650Z,77.01
2019-04-04T09:13:34.484Z,76.42
2019-04-04T09:16:08.472Z,75.68
2019-04-04T09:18:42.204Z,75.41
2019-04-04T09:21:16.148Z,75.34
2019-04-04T09:23:49.965Z,75.55
2019-04-04T09:26:23.829Z,75.99
2019-04-04T09:28:57.601Z,75.79
2019-04-04T09:31:31.407Z,74.85
2019-04-04T09:34:05.237Z,74.69
2019-04-04T09:36:39.040Z,74.50
2019-04-04T09:39:12.779Z,74.57
2019-04-04T09:41:46.586Z,74.37
2019-04-04T09:44:20.352Z,74.13
2019-04-04T09:47:04.796Z,74.01
2019-04-04T09:49:29.747Z,74.29
2019-04-04T09:52:04.040Z,74.54
2019-04-04T09:54:37.759Z,73.75
2019-04-04T09:57:11.574Z,72.28
2019-04-04T09:59:45.871Z,72.66
2019-04-04T10:02:19.757Z,72.04
2019-04-04T10:04:53.944Z,71.05
2019-04-04T10:07:27.877Z,68.74
2019-04-04T10:10:01.935Z,68.49
2019-04-04T10:12:35.788Z,69.52
2019-04-04T10:15:09.742Z,67.71
2019-04-04T10:17:43.833Z,67.06
2019-04-04T10:20:17.786Z,66.18
2019-04-04T10:22:51.833Z,64.53
2019-04-04T10:25:25.763Z,63.55
2019-04-04T10:27:59.677Z,62.17
2019-04-04T10:30:34.166Z,60.95
2019-04-04T10:33:08.168Z,59.37
2019-04-04T10:35:41.981Z,59.76
2019-04-04T10:38:15.764Z,60.36
2019-04-04T10:40:49.709Z,59.37
2019-04-04T10:43:23.624Z,60.25
2019-04-04T10:45:57.488Z,61.10
2019-04-04T10:48:31.291Z,60.86
2019-04-04T10:51:05.227Z,62.40
2019-04-04T10:53:39.430Z,61.60
2019-04-04T10:56:13.289Z,61.23
2019-04-04T10:58:47.106Z,61.35
2019-04-04T11:01:21.241Z,61.96
2019-04-04T11:03:55.110Z,61.94
2019-04-04T11:06:29.164Z,60.47
2019-04-04T11:09:04.940Z,59.12
2019-04-04T11:11:38.742Z,59.59
2019-04-04T11:14:12.875Z,61.13
2019-04-04T11:16:46.767Z,62.68
2019-04-04T11:21:56.106Z,63.40
2019-04-04T11:23:46.535Z,63.69
2019-04-04T11:24:30.163Z,64.18
2019-04-04T11:27:04.039Z,62.67
2019-04-04T11:29:37.842Z,63.18
2019-04-04T11:32:11.727Z,63.22
2019-04-04T11:34:53.196Z,62.82
2019-04-04T11:37:21.297Z,61.73
2019-04-04T11:39:55.376Z,61.31
2019-04-04T11:42:29.661Z,61.51
2019-04-04T11:45:03.482Z,59.79
2019-04-04T11:47:37.392Z,59.93
2019-04-04T11:50:11.615Z,60.19
2019-04-04T11:52:45.587Z,58.27
2019-04-04T11:55:19.531Z,60.05
2019-04-04T11:57:53.370Z,61.81
2019-04-04T12:00:32.877Z,59.70
2019-04-04T12:03:06.908Z,60.42
2019-04-04T12:05:40.638Z,61.22
2019-04-04T12:08:14.515Z,61.02
2019-04-04T12:10:48.547Z,60.30
2019-04-04T12:13:22.399Z,60.27
2019-04-04T12:15:56.115Z,62.16
2019-04-04T12:18:29.980Z,64.37
2019-04-04T12:21:03.691Z,64.37
2019-04-04T12:23:37.458Z,62.54
2019-04-04T12:26:11.213Z,61.51
2019-04-04T12:28:45.045Z,59.54
2019-04-04T12:31:18.966Z,60.96
2019-04-04T12:33:53.119Z,60.42
2019-04-04T12:36:26.885Z,60.10
2019-04-04T12:39:00.634Z,60.00
2019-04-04T12:41:34.379Z,59.21
2019-04-04T12:44:08.303Z,59.54
2019-04-04T12:46:42.576Z,60.22
2019-04-04T12:49:16.480Z,59.68
2019-04-04T12:51:50.272Z,59.14
2019-04-04T12:54:24.208Z,60.79
2019-04-04T12:56:57.988Z,60.77
2019-04-04T12:59:34.557Z,62.31
2019-04-04T13:02:08.448Z,61.31
2019-04-04T13:04:42.604Z,61.11
2019-04-04T13:07:16.461Z,60.34
2019-04-04T13:09:50.357Z,62.04
2019-04-04T13:12:24.225Z,60.62
2019-04-04T13:14:58.353Z,61.65
2019-04-04T13:17:32.029Z,62.19
2019-04-04T13:20:06.625Z,62.73
2019-04-04T13:22:40.313Z,62.49
2019-04-04T13:25:14.177Z,62.82
2019-04-04T13:27:47.978Z,63.39
2019-04-04T13:30:21.937Z,65.18
2019-04-04T13:32:55.881Z,64.52
2019-04-04T13:35:29.614Z,64.76
2019-04-04T13:38:03.297Z,66.28
2019-04-04T13:40:45.517Z,65.92
2019-04-04T13:43:12.729Z,64.06
2019-04-04T13:45:46.450Z,64.78
2019-04-04T13:48:20.137Z,64.42
2019-04-04T13:50:53.840Z,65.48
2019-04-04T13:53:27.530Z,65.68
2019-04-04T13:56:01.286Z,64.51
2019-04-04T13:58:34.973Z,66.71
2019-04-04T14:01:08.777Z,67.37
2019-04-04T14:03:42.456Z,67.87
2019-04-04T14:06:16.245Z,67.14
2019-04-04T14:08:49.934Z,68.47
2019-04-04T14:11:23.676Z,68.74
2019-04-04T14:13:58.803Z,69.32
2019-04-04T14:16:32.850Z,68.34
2019-04-04T14:19:06.613Z,69.23
2019-04-04T14:21:40.421Z,68.79
2019-04-04T14:24:14.509Z,68.24
2019-04-04T14:26:48.270Z,68.08
2019-04-04T14:29:27.622Z,70.17
2019-04-04T14:31:57.517Z,68.40
2019-04-04T14:34:31.223Z,67.35
2019-04-04T14:37:05.033Z,67.98
2019-04-04T14:39:38.716Z,70.10
2019-04-04T14:42:12.781Z,69.82
2019-04-04T14:44:46.470Z,68.90
2019-04-04T14:47:20.226Z,68.73
2019-04-04T14:49:53.921Z,69.50
2019-04-04T14:52:27.680Z,69.90
2019-04-04T14:55:01.444Z,67.75
2019-04-04T14:57:35.206Z,69.59
2019-04-04T15:00:11.972Z,66.90
2019-04-04T15:02:45.719Z,66.64
2019-04-04T15:05:19.369Z,66.60
2019-04-04T15:07:53.439Z,67.43
2019-04-04T15:10:27.216Z,67.72
2019-04-04T15:13:00.983Z,68.06
2019-04-04T15:15:34.671Z,68.85
2019-04-04T15:18:08.407Z,68.24
2019-04-04T15:20:42.124Z,67.78
2019-04-04T15:23:15.838Z,68.44
2019-04-04T15:25:49.540Z,68.84
2019-04-04T15:28:26.003Z,69.26
2019-04-04T15:30:58.761Z,69.57
2019-04-04T15:33:32.510Z,70.48
2019-04-04T15:36:06.424Z,69.71
2019-04-04T15:38:40.151Z,69.60
2019-04-04T15:41:13.850Z,72.45
2019-04-04T15:43:47.653Z,72.51
2019-04-04T15:46:21.380Z,73.76
2019-04-04T15:48:55.112Z,74.87
2019-04-04T15:51:28.804Z,75.46
2019-04-04T15:54:02.610Z,76.69
2019-04-04T15:56:36.297Z,76.30
2019-04-04T15:59:10.021Z,74.78
2019-04-04T16:01:43.780Z,72.24
2019-04-04T16:04:17.514Z,73.30
2019-04-04T16:06:51.201Z,75.16
2019-04-04T16:09:25.690Z,74.52
2019-04-04T16:11:59.357Z,73.99
2019-04-04T16:14:33.080Z,74.34
2019-04-04T16:17:06.837Z,75.41
2019-04-04T16:19:40.631Z,76.16
2019-04-04T16:22:14.322Z,76.79
2019-04-04T16:24:48.114Z,77.15
2019-04-04T16:27:21.811Z,77.49
2019-04-04T16:29:55.590Z,78.50
2019-04-04T16:32:29.272Z,79.12
2019-04-04T16:35:03.086Z,78.51
2019-04-04T16:37:36.790Z,78.70
2019-04-04T16:40:12.893Z,79.43
2019-04-04T16:42:46.604Z,79.75
2019-04-04T16:45:20.340Z,79.76
2019-04-04T16:47:54.020Z,79.36
2019-04-04T16:50:27.757Z,79.10
2019-04-04T16:53:01.446Z,79.29
2019-04-04T16:55:35.441Z,78.87
2019-04-04T16:58:09.182Z,78.57
2019-04-04T17:00:43.252Z,78.52
2019-04-04T17:03:16.939Z,78.31
2019-04-04T17:05:50.979Z,78.60
2019-04-04T17:08:25.143Z,78.94
2019-04-04T17:10:58.892Z,79.37
2019-04-04T17:13:32.634Z,79.80
2019-04-04T17:16:06.664Z,79.95
2019-04-04T17:18:40.346Z,80.40
2019-04-04T17:21:14.536Z,80.85
2019-04-04T17:23:48.561Z,81.35
2019-04-04T17:26:22.300Z,81.93
2019-04-04T17:28:56.270Z,81.89
2019-04-04T17:31:30.028Z,82.09
2019-04-04T17:34:04.303Z,82.73
2019-04-04T17:36:38.064Z,82.51
2019-04-04T17:39:11.806Z,82.51
2019-04-04T17:41:45.643Z,82.46
2019-04-04T17:44:19.292Z,83.53
2019-04-04T17:46:53.166Z,83.53
2019-04-04T17:49:27.210Z,83.87
2019-04-04T17:52:01.200Z,84.93
2019-04-04T17:54:35.067Z,85.31
2019-04-04T17:57:08.847Z,85.31
2019-04-04T17:59:42.777Z,86.17
2019-04-04T18:02:16.605Z,85.81
2019-04-04T18:04:50.449Z,85.74
2019-04-04T18:07:24.232Z,86.14
2019-04-04T18:09:59.851Z,86.76
2019-04-04T18:12:40.250Z,86.48
2019-04-04T18:15:10.648Z,86.48
2019-04-04T18:17:44.832Z,86.20
2019-04-04T18:20:18.950Z,85.38
2019-04-04T18:22:52.924Z,85.27
2019-04-04T18:25:26.747Z,85.91
2019-04-04T18:28:01.016Z,85.91
2019-04-04T18:30:34.750Z,85.69
2019-04-04T18:33:08.556Z,85.69
2019-04-04T18:35:42.962Z,85.78
2019-04-04T18:38:17.225Z,85.84
2019-04-04T18:40:51.787Z,86.00
2019-04-04T18:43:25.575Z,86.00
2019-04-04T18:45:59.696Z,85.91
2019-04-04T18:48:33.512Z,85.91
2019-04-04T18:51:07.298Z,85.77
2019-04-04T18:53:41.416Z,85.78
2019-04-04T18:56:15.323Z,86.08
2019-04-04T18:58:49.288Z,86.08
2019-04-04T19:01:23.102Z,85.71
2019-04-04T19:03:56.972Z,85.89
2019-04-04T19:06:31.179Z,85.89
2019-04-04T19:09:15.191Z,85.40
2019-04-04T19:11:45.903Z,85.64
2019-04-04T19:14:20.047Z,85.84
2019-04-04T19:16:53.993Z,85.83
2019-04-04T19:19:27.916Z,85.83
2019-04-04T19:22:01.679Z,85.95
2019-04-04T19:24:35.524Z,86.01
2019-04-04T19:27:09.342Z,86.46
2019-04-04T19:29:43.328Z,86.65
2019-04-04T19:32:17.101Z,86.65
2019-04-04T19:34:50.806Z,86.80
2019-04-04T19:37:24.582Z,87.00
2019-04-04T19:39:58.353Z,86.94
2019-04-04T19:42:32.088Z,87.07
2019-04-04T19:45:06.738Z,86.66
2019-04-04T19:47:40.758Z,86.66
2019-04-04T19:50:14.925Z,86.89
2019-04-04T19:52:48.626Z,86.98
2019-04-04T19:55:22.378Z,86.98
2019-04-04T19:57:56.062Z,86.89
2019-04-04T20:00:32.077Z,86.95
2019-04-04T20:03:06.382Z,86.89
2019-04-04T20:05:40.152Z,86.85
2019-04-04T20:08:13.834Z,86.71
2019-04-04T20:10:47.884Z,86.60
2019-04-04T20:13:30.852Z,86.49
2019-04-04T20:15:57.167Z,86.43
2019-04-04T20:18:30.863Z,86.37
2019-04-04T20:21:04.998Z,86.49
2019-04-04T20:23:38.691Z,86.46
2019-04-04T20:26:12.790Z,86.54
2019-04-04T20:28:46.508Z,86.54
2019-04-04T20:31:20.264Z,86.62
2019-04-04T20:34:01.381Z,86.70
2019-04-04T20:36:29.706Z,86.85
2019-04-04T20:39:04.583Z,86.70
2019-04-04T20:41:38.318Z,86.54
2019-04-04T20:44:12.007Z,86.70
2019-04-04T20:46:45.748Z,86.70
2019-04-04T20:49:19.452Z,86.27
2019-04-04T20:51:53.192Z,86.27
2019-04-04T20:54:27.450Z,86.37
2019-04-04T20:57:01.183Z,86.45
2019-04-04T20:59:34.882Z,86.48
2019-04-04T21:02:08.629Z,86.48
2019-04-04T21:04:42.320Z,86.48
2019-04-04T21:07:16.381Z,86.47
2019-04-04T21:09:50.081Z,86.37
2019-04-04T21:12:23.803Z,86.37
2019-04-04T21:14:57.504Z,86.53
2019-04-04T21:17:31.851Z,86.53
2019-04-04T21:20:06.063Z,86.68
2019-04-04T21:22:39.826Z,86.68
2019-04-04T21:25:14.051Z,86.90
2019-04-04T21:27:47.997Z,86.90
2019-04-04T21:30:21.778Z,87.00
2019-04-04T21:32:55.530Z,87.20
2019-04-04T21:35:29.308Z,87.22
2019-04-04T21:38:03.184Z,87.24
2019-04-04T21:40:36.884Z,87.40
2019-04-04T21:43:10.618Z,87.40
2019-04-04T21:45:44.311Z,87.37
2019-04-04T21:48:18.043Z,87.31
2019-04-04T21:50:51.737Z,87.31
2019-04-04T21:53:25.762Z,87.76
2019-04-04T21:55:59.621Z,87.76
2019-04-04T21:58:33.405Z,88.01
2019-04-04T22:01:07.562Z,88.40
2019-04-04T22:03:41.322Z,88.50
2019-04-04T22:06:16.088Z,88.59
2019-04-04T22:08:49.913Z,88.49
2019-04-04T22:11:23.673Z,88.47
2019-04-04T22:13:57.441Z,88.75
2019-04-04T22:16:31.148Z,88.48
2019-04-04T22:19:05.027Z,88.41
2019-04-04T22:21:38.978Z,88.27
2019-04-04T22:24:12.704Z,88.27
2019-04-04T22:26:46.715Z,88.32
2019-04-04T22:29:20.452Z,88.39
2019-04-04T22:31:54.149Z,88.18
2019-04-04T22:34:27.902Z,88.18
2019-04-04T22:37:01.599Z,88.17
2019-04-04T22:39:35.645Z,88.11
2019-04-04T22:42:09.410Z,88.11
2019-04-04T22:44:43.164Z,88.23
2019-04-04T22:47:16.860Z,88.23
2019-04-04T22:49:50.622Z,88.34
2019-04-04T22:52:24.307Z,88.34
2019-04-04T22:54:58.032Z,88.41
2019-04-04T22:57:32.115Z,88.53
2019-04-04T23:00:07.003Z,88.53
2019-04-04T23:02:40.701Z,88.32
2019-04-04T23:05:14.609Z,88.42
2019-04-04T23:07:48.300Z,88.42
2019-04-04T23:10:22.347Z,88.61
2019-04-04T23:12:56.320Z,88.61
2019-04-04T23:15:30.063Z,88.52
2019-04-04T23:18:03.835Z,88.45
2019-04-04T23:20:37.647Z,88.51
2019-04-04T23:23:11.354Z,88.42
2019-04-04T23:25:45.102Z,88.63
2019-04-04T23:28:19.079Z,88.55
2019-04-04T23:30:52.863Z,88.55
2019-04-04T23:33:26.560Z,88.77
2019-04-04T23:36:00.296Z,88.64
2019-04-04T23:38:34.287Z,88.64
2019-04-04T23:41:08.089Z,88.65
2019-04-04T23:43:41.778Z,88.58
2019-04-04T23:46:15.527Z,88.62
2019-04-04T23:48:49.243Z,88.55
2019-04-04T23:51:23.575Z,88.53
2019-04-04T23:53:57.278Z,88.62
2019-04-04T23:56:31.311Z,88.37
2019-04-04T23:59:05.081Z,88.37
